Aviation Digital Data Service (ADDS)

Output produced by METARs form (0100 UTC 22 September 2017)
found at http://www.aviationweather.gov/adds/metars/
 
TAF SVBC 212200Z 2200/2300 07005KT 9999 SCT010 TX36/19Z TN25/09Z 
     BECMG 2200/2204 02003KT 9000 -DZ BKN010 
     FM220600 00000KT 9999 FEW016
       
TAF SVMI 212200Z 2200/2300 14004KT 9000 -DZ BKN016 TX32/18Z TN25/09Z 
     BECMG 2200/2204 07005KT RA BKN090 
     FM220600 00000KT 9000 FEW016 SCT060
       
TAF SVMC 212200Z 2200/2300 31005KT 9999 SCT016 TX35/19Z TN25/08Z 
     BECMG 2200/2204 35007KT 9000 DZ BKN016 
     FM220600 27003KT 9999 SCT010 SCT070
       
TAF SVMG 212200Z 2200/2300 07004KT 9999 SCT010 TX34/18Z TN24/09Z 
     BECMG 2200/2204 09005KT 9000 DZ SCT016 SCT100
       
TAF SVJC 212200Z 2200/2300 04012KT 9999 SCT010 TX35/18Z TN25/09Z 
     BECMG 2200/2204 02015KT 9999 VCDZ BKN020 FM 220600 00000KT 9999 SCT010
       
TAF SVSA 212200Z 2200/2300 22006KT 9999 SCT010 SCT080 TX33/18Z TN23/09Z 
     BECMG 2200/2204 09005KT FEW020